createdAt,value
2023-05-03T00:00:56.998Z,36.00
2023-05-03T00:01:57.144Z,35.97
2023-05-03T00:02:57.134Z,36.00
2023-05-03T00:03:57.121Z,35.97
2023-05-03T00:04:57.155Z,36.00
2023-05-03T00:05:57.176Z,36.04
2023-05-03T00:06:57.204Z,36.03
2023-05-03T00:07:57.228Z,36.08
2023-05-03T00:08:57.258Z,36.02
2023-05-03T00:09:57.297Z,36.08
2023-05-03T00:10:57.366Z,36.06
2023-05-03T00:11:57.357Z,36.07
2023-05-03T00:12:57.417Z,36.04
2023-05-03T00:13:57.443Z,36.07
2023-05-03T00:14:57.476Z,36.08
2023-05-03T00:15:57.506Z,36.02
2023-05-03T00:16:57.575Z,36.05
2023-05-03T00:17:57.697Z,36.03
2023-05-03T00:18:57.609Z,36.03
2023-05-03T00:19:57.644Z,36.04
2023-05-03T00:20:57.685Z,36.04
2023-05-03T00:21:57.714Z,36.05
2023-05-03T00:22:57.752Z,36.04
2023-05-03T00:23:57.780Z,36.07
2023-05-03T00:24:57.829Z,36.05
2023-05-03T00:25:57.860Z,36.04
2023-05-03T00:26:57.914Z,36.04
2023-05-03T00:27:57.936Z,36.03
2023-05-03T00:28:57.971Z,36.01
2023-05-03T00:29:58.040Z,36.00
2023-05-03T00:30:58.136Z,36.02
2023-05-03T00:31:58.081Z,36.05
2023-05-03T00:32:58.167Z,35.97
2023-05-03T00:33:58.144Z,35.92
2023-05-03T00:34:58.202Z,35.97
2023-05-03T00:35:58.289Z,36.05
2023-05-03T00:36:58.271Z,36.03
2023-05-03T00:37:58.296Z,35.99
2023-05-03T00:38:58.340Z,35.95
2023-05-03T00:39:58.370Z,35.99
2023-05-03T00:40:58.407Z,35.96
2023-05-03T00:41:58.460Z,35.93
2023-05-03T00:42:58.512Z,35.99
2023-05-03T00:43:58.522Z,35.96
2023-05-03T00:44:58.562Z,35.99
2023-05-03T00:46:12.304Z,35.99
2023-05-03T00:46:58.663Z,35.99
2023-05-03T00:47:58.601Z,35.99
2023-05-03T00:48:58.559Z,36.00
2023-05-03T00:49:58.550Z,36.04
2023-05-03T00:50:58.545Z,35.99
2023-05-03T00:51:58.526Z,36.00
2023-05-03T00:52:58.515Z,35.99
2023-05-03T00:53:58.507Z,35.99
2023-05-03T00:54:58.494Z,36.03
2023-05-03T00:55:58.500Z,36.00
2023-05-03T00:56:58.478Z,35.95
2023-05-03T00:57:58.471Z,35.99
2023-05-03T00:58:58.480Z,35.95
2023-05-03T00:59:58.449Z,35.92
2023-05-03T01:00:58.434Z,35.96
2023-05-03T01:01:58.548Z,35.88
2023-05-03T01:02:58.467Z,35.92
2023-05-03T01:03:58.580Z,35.95
2023-05-03T01:04:58.405Z,35.95
2023-05-03T01:05:58.549Z,35.95
2023-05-03T01:06:58.374Z,35.89
2023-05-03T01:07:58.368Z,35.93
2023-05-03T01:08:58.357Z,35.93
2023-05-03T01:09:58.345Z,35.91
2023-05-03T01:10:58.332Z,35.93
2023-05-03T01:11:58.321Z,35.96
2023-05-03T01:12:58.304Z,35.90
2023-05-03T01:13:58.313Z,35.97
2023-05-03T01:14:58.295Z,35.92
2023-05-03T01:15:58.305Z,35.97
2023-05-03T01:16:58.295Z,35.99
2023-05-03T01:17:58.355Z,35.97
2023-05-03T01:18:58.376Z,35.98
2023-05-03T01:19:58.435Z,35.96
2023-05-03T01:20:58.469Z,35.96
2023-05-03T01:21:58.522Z,35.96
2023-05-03T01:22:58.549Z,35.89
2023-05-03T01:23:58.588Z,35.93
2023-05-03T01:24:58.627Z,35.92
2023-05-03T01:25:58.675Z,35.84
2023-05-03T01:26:58.704Z,35.87
2023-05-03T01:27:58.745Z,35.89
2023-05-03T01:28:58.784Z,35.92
2023-05-03T01:29:58.819Z,35.89
2023-05-03T01:30:58.891Z,35.85
2023-05-03T01:31:59.027Z,35.88
2023-05-03T01:32:58.989Z,35.82
2023-05-03T01:33:59.002Z,35.81
2023-05-03T01:34:59.040Z,35.88
2023-05-03T01:35:59.086Z,35.78
2023-05-03T01:36:59.121Z,35.83
2023-05-03T01:37:59.162Z,35.80
2023-05-03T01:38:59.227Z,35.86
2023-05-03T01:39:59.246Z,35.87
2023-05-03T01:40:59.291Z,35.81
2023-05-03T01:41:59.336Z,35.84
2023-05-03T01:42:59.379Z,35.79
2023-05-03T01:43:59.423Z,35.85
2023-05-03T01:44:59.449Z,35.87
2023-05-03T01:45:59.530Z,35.81
2023-05-03T01:46:59.549Z,35.80
2023-05-03T01:47:59.613Z,35.82
2023-05-03T01:48:59.600Z,35.77
2023-05-03T01:49:59.647Z,35.84
2023-05-03T01:50:59.707Z,35.82
2023-05-03T01:51:59.729Z,35.80
2023-05-03T01:52:59.772Z,35.82
2023-05-03T01:53:59.802Z,35.85
2023-05-03T01:54:59.845Z,35.80
2023-05-03T01:55:59.892Z,35.81
2023-05-03T01:56:59.932Z,35.85
2023-05-03T01:57:59.975Z,35.77
2023-05-03T01:59:00.020Z,35.75
2023-05-03T02:00:00.206Z,35.77
2023-05-03T02:01:00.195Z,35.78
2023-05-03T02:02:00.160Z,35.78
2023-05-03T02:03:00.278Z,35.81
2023-05-03T02:04:00.266Z,35.82
2023-05-03T02:05:00.279Z,35.76
2023-05-03T02:06:00.339Z,35.81
2023-05-03T02:07:00.362Z,35.80
2023-05-03T02:08:00.426Z,35.73
2023-05-03T02:09:00.453Z,35.81
2023-05-03T02:10:00.675Z,35.74
2023-05-03T02:11:00.535Z,35.77
2023-05-03T02:12:00.574Z,35.73
2023-05-03T02:13:00.628Z,35.79
2023-05-03T02:14:00.658Z,35.81
2023-05-03T02:15:00.712Z,35.78
2023-05-03T02:16:00.761Z,35.84
2023-05-03T02:17:00.934Z,35.77
2023-05-03T02:18:00.882Z,35.76
2023-05-03T02:19:00.909Z,35.80
2023-05-03T02:20:01.173Z,35.82
2023-05-03T02:21:00.964Z,35.82
2023-05-03T02:22:01.006Z,35.77
2023-05-03T02:23:01.055Z,35.74
2023-05-03T02:24:01.087Z,35.74
2023-05-03T02:25:01.128Z,35.76
2023-05-03T02:26:01.183Z,35.73
2023-05-03T02:27:01.222Z,35.78
2023-05-03T02:28:01.279Z,35.76
2023-05-03T02:29:01.317Z,35.73
2023-05-03T02:30:01.778Z,35.73
2023-05-03T02:31:01.640Z,35.77
2023-05-03T02:32:01.441Z,35.70
2023-05-03T02:33:01.545Z,35.76
2023-05-03T02:34:01.522Z,35.74
2023-05-03T02:35:01.601Z,35.71
2023-05-03T02:36:01.646Z,35.69
2023-05-03T02:37:01.655Z,35.78
2023-05-03T02:38:01.705Z,35.78
2023-05-03T02:39:01.772Z,35.77
2023-05-03T02:40:02.068Z,35.73
2023-05-03T02:41:01.846Z,35.73
2023-05-03T02:42:01.887Z,35.74
2023-05-03T02:43:01.935Z,35.74
2023-05-03T02:44:01.983Z,35.75
2023-05-03T02:45:02.026Z,35.76
2023-05-03T02:46:02.203Z,35.73
2023-05-03T02:47:02.123Z,35.77
2023-05-03T02:48:02.224Z,35.77
2023-05-03T02:49:02.208Z,35.74
2023-05-03T02:50:02.546Z,35.71
2023-05-03T02:51:02.325Z,35.69
2023-05-03T02:52:02.350Z,35.74
2023-05-03T02:53:02.393Z,35.73
2023-05-03T02:54:02.441Z,35.70
2023-05-03T02:55:02.492Z,35.73
2023-05-03T02:56:02.551Z,35.78
2023-05-03T02:57:02.618Z,35.74
2023-05-03T02:58:02.615Z,35.72
2023-05-03T02:59:02.657Z,35.75
2023-05-03T03:00:02.897Z,35.77
2023-05-03T03:01:02.750Z,35.73
2023-05-03T03:02:02.885Z,35.74
2023-05-03T03:03:02.949Z,35.77
2023-05-03T03:04:03.000Z,35.84
2023-05-03T03:05:02.953Z,35.81
2023-05-03T03:06:02.990Z,35.83
2023-05-03T03:07:03.060Z,35.73
2023-05-03T03:08:03.080Z,35.81
2023-05-03T03:09:03.132Z,35.73
2023-05-03T03:10:03.398Z,35.81
2023-05-03T03:11:03.219Z,35.77
2023-05-03T03:12:03.265Z,35.74
2023-05-03T03:13:03.315Z,35.70
2023-05-03T03:14:03.359Z,35.74
2023-05-03T03:15:03.408Z,35.73
2023-05-03T03:16:03.467Z,35.69
2023-05-03T03:17:03.533Z,35.71
2023-05-03T03:18:03.580Z,35.73
2023-05-03T03:19:03.580Z,35.69
2023-05-03T03:20:03.848Z,35.70
2023-05-03T03:21:03.673Z,35.77
2023-05-03T03:22:03.739Z,35.69
2023-05-03T03:23:03.804Z,35.65
2023-05-03T03:24:03.816Z,35.65
2023-05-03T03:25:03.864Z,35.66
2023-05-03T03:26:03.920Z,35.69
2023-05-03T03:27:03.965Z,35.70
2023-05-03T03:28:04.018Z,35.65
2023-05-03T03:29:04.084Z,35.64
2023-05-03T03:30:04.399Z,35.69
2023-05-03T03:31:04.180Z,35.70
2023-05-03T03:32:04.401Z,35.71
2023-05-03T03:33:04.367Z,35.68
2023-05-03T03:34:04.316Z,35.64
2023-05-03T03:35:04.376Z,35.66
2023-05-03T03:36:04.416Z,35.63
2023-05-03T03:37:04.480Z,35.58
2023-05-03T03:38:04.515Z,35.69
2023-05-03T03:39:04.596Z,35.70
2023-05-03T03:40:04.924Z,35.62
2023-05-03T03:41:04.660Z,35.61
2023-05-03T03:42:04.723Z,35.62
2023-05-03T03:43:04.762Z,35.63
2023-05-03T03:44:04.808Z,35.62
2023-05-03T03:45:04.865Z,35.62
2023-05-03T03:46:04.912Z,35.63
2023-05-03T03:47:05.057Z,35.61
2023-05-03T03:48:05.058Z,35.60
2023-05-03T03:49:05.079Z,35.63
2023-05-03T03:50:05.537Z,35.62
2023-05-03T03:51:05.195Z,35.56
2023-05-03T03:52:05.248Z,35.57
2023-05-03T03:53:05.366Z,35.57
2023-05-03T03:54:05.375Z,35.58
2023-05-03T03:55:05.525Z,35.58
2023-05-03T03:56:05.485Z,35.61
2023-05-03T03:57:05.537Z,35.61
2023-05-03T03:58:05.593Z,35.65
2023-05-03T03:59:05.646Z,35.62
2023-05-03T04:00:06.178Z,35.63
2023-05-03T04:01:05.759Z,35.63
2023-05-03T04:02:05.903Z,35.62
2023-05-03T04:03:07.561Z,35.62
2023-05-03T04:04:05.949Z,35.58
2023-05-03T04:05:05.853Z,35.60
2023-05-03T04:06:05.874Z,35.62
2023-05-03T04:07:05.824Z,35.60
2023-05-03T04:08:05.805Z,35.65
2023-05-03T04:09:05.802Z,35.66
2023-05-03T04:10:06.076Z,35.61
2023-05-03T04:11:05.786Z,35.63
2023-05-03T04:12:05.743Z,35.57
2023-05-03T04:13:05.741Z,35.60
2023-05-03T04:14:05.724Z,35.55
2023-05-03T04:15:05.703Z,35.58
2023-05-03T04:16:05.716Z,35.60
2023-05-03T04:17:05.799Z,35.51
2023-05-03T04:18:05.792Z,35.55
2023-05-03T04:19:05.665Z,35.54
2023-05-03T04:20:05.921Z,35.57
2023-05-03T04:21:05.651Z,35.51
2023-05-03T04:22:05.636Z,35.54
2023-05-03T04:23:05.612Z,35.53
2023-05-03T04:24:05.605Z,35.54
2023-05-03T04:25:05.599Z,35.50
2023-05-03T04:26:05.865Z,35.51
2023-05-03T04:27:05.720Z,35.54
2023-05-03T04:28:05.759Z,35.47
2023-05-03T04:29:05.813Z,35.49
2023-05-03T04:30:06.191Z,35.49
2023-05-03T04:31:05.998Z,35.46
2023-05-03T04:32:05.977Z,35.50
2023-05-03T04:33:06.058Z,35.47
2023-05-03T04:34:06.099Z,35.47
2023-05-03T04:35:06.147Z,35.48
2023-05-03T04:36:06.248Z,35.47
2023-05-03T04:37:06.273Z,35.46
2023-05-03T04:38:06.324Z,35.46
2023-05-03T04:39:06.392Z,35.45
2023-05-03T04:40:06.430Z,35.45
2023-05-03T04:41:06.471Z,35.44
2023-05-03T04:42:06.531Z,35.46
2023-05-03T04:43:06.628Z,35.50
2023-05-03T04:44:06.645Z,35.42
2023-05-03T04:45:06.705Z,35.42
2023-05-03T04:46:06.814Z,35.46
2023-05-03T04:47:06.832Z,35.46
2023-05-03T04:48:06.976Z,35.48
2023-05-03T04:49:06.982Z,35.39
2023-05-03T04:50:07.110Z,35.50
2023-05-03T04:51:07.105Z,35.46
2023-05-03T04:52:07.082Z,35.46
2023-05-03T04:53:07.133Z,35.44
2023-05-03T04:54:07.185Z,35.47
2023-05-03T04:55:07.258Z,35.40
2023-05-03T04:56:07.310Z,35.40
2023-05-03T04:57:07.354Z,35.37
2023-05-03T04:58:07.413Z,35.37
2023-05-03T04:59:07.506Z,35.39
2023-05-03T05:00:07.525Z,35.42
2023-05-03T05:01:07.677Z,35.36
2023-05-03T05:02:07.993Z,35.39
2023-05-03T05:03:07.794Z,35.42
2023-05-03T05:04:07.980Z,35.41
2023-05-03T05:05:07.820Z,35.36
2023-05-03T05:06:07.910Z,35.43
2023-05-03T05:07:07.950Z,35.38
2023-05-03T05:08:07.999Z,35.41
2023-05-03T05:09:08.050Z,35.41
2023-05-03T05:10:08.110Z,35.38
2023-05-03T05:11:08.198Z,35.29
2023-05-03T05:12:08.220Z,35.26
2023-05-03T05:13:08.280Z,35.22
2023-05-03T05:14:08.332Z,35.26
2023-05-03T05:15:08.417Z,35.30
2023-05-03T05:16:08.445Z,35.27
2023-05-03T05:17:08.545Z,35.26
2023-05-03T05:18:08.628Z,35.27
2023-05-03T05:19:08.636Z,35.32
2023-05-03T05:20:09.137Z,35.35
2023-05-03T05:21:08.767Z,35.39
2023-05-03T05:22:08.794Z,35.52
2023-05-03T05:23:08.849Z,35.46
2023-05-03T05:24:08.911Z,35.53
2023-05-03T05:25:08.973Z,35.53
2023-05-03T05:26:09.041Z,35.58
2023-05-03T05:27:09.099Z,35.59
2023-05-03T05:28:09.160Z,35.67
2023-05-03T05:29:09.212Z,35.65
2023-05-03T05:30:09.641Z,35.67
2023-05-03T05:31:09.685Z,35.71
2023-05-03T05:32:09.395Z,35.70
2023-05-03T05:33:09.472Z,35.66
2023-05-03T05:34:09.507Z,35.66
2023-05-03T05:35:09.592Z,35.74
2023-05-03T05:36:09.655Z,35.70
2023-05-03T05:37:09.720Z,35.68
2023-05-03T05:38:09.789Z,35.73
2023-05-03T05:39:09.860Z,35.67
2023-05-03T05:40:09.915Z,35.67
2023-05-03T05:41:10.156Z,35.66
2023-05-03T05:42:10.065Z,35.80
2023-05-03T05:43:10.140Z,35.70
2023-05-03T05:44:10.186Z,35.79
2023-05-03T05:45:10.257Z,35.79
2023-05-03T05:46:10.309Z,35.79
2023-05-03T05:47:10.767Z,35.90
2023-05-03T05:48:10.464Z,36.03
2023-05-03T05:49:10.499Z,36.01
2023-05-03T05:50:19.154Z,35.94
2023-05-03T05:51:10.568Z,36.04
2023-05-03T05:52:10.656Z,36.45
2023-05-03T05:53:10.559Z,36.52
2023-05-03T05:54:10.558Z,36.35
2023-05-03T05:55:10.555Z,36.27
2023-05-03T05:56:10.557Z,36.46
2023-05-03T05:57:10.659Z,36.57
2023-05-03T05:58:10.651Z,37.25
2023-05-03T05:59:10.541Z,37.22
2023-05-03T06:00:10.573Z,37.59
2023-05-03T06:01:10.545Z,37.62
2023-05-03T06:02:10.721Z,37.68
2023-05-03T06:03:10.623Z,37.80
2023-05-03T06:04:10.545Z,38.02
2023-05-03T06:05:10.579Z,37.99
2023-05-03T06:06:11.618Z,37.98
2023-05-03T06:07:13.855Z,38.06
2023-05-03T06:08:10.503Z,38.04
2023-05-03T06:09:23.552Z,38.06
2023-05-03T06:10:10.666Z,38.02
2023-05-03T06:11:10.541Z,37.89
2023-05-03T06:12:10.442Z,37.91
2023-05-03T06:13:10.441Z,37.76
2023-05-03T06:14:10.664Z,37.74
2023-05-03T06:15:10.419Z,37.70
2023-05-03T06:16:10.411Z,37.66
2023-05-03T06:17:10.542Z,37.59
2023-05-03T06:18:10.430Z,37.53
2023-05-03T06:19:10.683Z,37.46
2023-05-03T06:20:10.383Z,37.49
2023-05-03T07:18:01.102Z,35.59
2023-05-03T07:20:17.021Z,35.49
2023-05-03T07:21:17.023Z,35.44
2023-05-03T11:30:38.530Z,32.69
2023-05-03T11:31:39.527Z,32.69
2023-05-03T11:32:39.564Z,32.61
2023-05-03T11:33:39.565Z,32.52
2023-05-03T11:34:39.993Z,32.55
2023-05-03T11:35:39.602Z,32.49
2023-05-03T11:36:39.627Z,32.45
2023-05-03T11:37:39.651Z,32.39
2023-05-03T11:38:39.677Z,32.49
2023-05-03T11:39:39.705Z,32.40
2023-05-03T11:40:39.713Z,32.40
2023-05-03T11:41:39.733Z,32.36
2023-05-03T11:42:39.774Z,32.36
2023-05-03T11:43:40.004Z,32.35
2023-05-03T11:44:39.813Z,32.30
2023-05-03T11:45:39.860Z,32.27
2023-05-03T11:46:39.929Z,32.33
2023-05-03T11:47:39.952Z,32.32
2023-05-03T11:48:39.924Z,32.31
2023-05-03T11:49:39.994Z,32.35
2023-05-03T11:50:39.971Z,32.32
2023-05-03T11:51:40.022Z,32.31
2023-05-03T11:52:40.118Z,32.24
2023-05-03T11:53:40.069Z,32.18
2023-05-03T11:54:40.509Z,32.16
2023-05-03T11:55:40.175Z,32.15
2023-05-03T11:56:40.205Z,32.10
2023-05-03T11:57:40.238Z,32.16
2023-05-03T11:58:40.284Z,32.14
2023-05-03T11:59:40.606Z,32.12
2023-05-03T12:00:40.319Z,32.10
2023-05-03T12:01:40.357Z,32.16
2023-05-03T12:02:40.678Z,32.06
2023-05-03T12:03:40.722Z,32.06
2023-05-03T12:04:40.563Z,32.09
2023-05-03T12:05:41.101Z,32.00
2023-05-03T12:06:42.856Z,31.89
2023-05-03T12:07:41.081Z,31.87
2023-05-03T12:08:43.277Z,31.93
2023-05-03T12:09:42.047Z,31.91
2023-05-03T12:10:41.014Z,31.84
2023-05-03T12:11:40.737Z,31.78
2023-05-03T12:12:43.501Z,31.74
2023-05-03T12:13:41.259Z,31.72
2023-05-03T12:14:41.890Z,31.77
2023-05-03T12:15:41.115Z,31.81
2023-05-03T12:16:40.660Z,31.72
2023-05-03T12:17:43.371Z,31.75
2023-05-03T12:18:40.848Z,31.71
2023-05-03T12:19:40.928Z,31.71
2023-05-03T12:21:42.039Z,31.65
2023-05-03T12:22:40.899Z,31.67
2023-05-03T12:23:40.751Z,31.62
2023-05-03T12:24:40.840Z,31.66
2023-05-03T12:25:44.425Z,31.60
2023-05-03T12:26:42.361Z,31.62
2023-05-03T12:27:40.984Z,31.66
2023-05-03T12:28:40.799Z,31.60
2023-05-03T12:29:41.903Z,31.67
2023-05-03T12:30:41.162Z,31.67
2023-05-03T12:31:43.704Z,31.62
2023-05-03T12:32:44.000Z,31.65
2023-05-03T12:33:43.540Z,31.57
2023-05-03T12:34:41.441Z,31.56
2023-05-03T12:35:41.557Z,31.53
2023-05-03T12:36:43.618Z,31.49
2023-05-03T12:37:43.483Z,31.40
2023-05-03T12:38:43.738Z,31.36
2023-05-03T12:39:41.137Z,31.44
2023-05-03T12:40:40.997Z,31.37
2023-05-03T12:42:06.079Z,31.37
2023-05-03T12:42:43.242Z,31.39
2023-05-03T12:43:43.494Z,31.26
2023-05-03T12:44:43.019Z,31.26
2023-05-03T12:45:41.461Z,31.17
2023-05-03T12:46:44.773Z,31.27
2023-05-03T12:47:44.126Z,31.21
2023-05-03T12:48:42.207Z,31.17
2023-05-03T12:49:45.666Z,31.16
2023-05-03T12:50:45.160Z,31.17
2023-05-03T12:51:42.706Z,31.21
2023-05-03T12:52:44.940Z,31.20
2023-05-03T12:53:41.160Z,31.21
2023-05-03T12:54:42.091Z,31.16
2023-05-03T12:55:44.086Z,31.21
2023-05-03T12:56:41.754Z,31.24
2023-05-03T12:57:43.202Z,31.12
2023-05-03T12:58:58.408Z,31.17
2023-05-03T12:59:42.802Z,31.25
2023-05-03T13:00:48.857Z,31.22
2023-05-03T13:03:20.588Z,31.16
2023-05-03T13:03:44.163Z,31.11
2023-05-03T13:05:40.695Z,31.10
2023-05-03T13:06:43.283Z,31.10
2023-05-03T13:07:42.947Z,31.15
2023-05-03T13:08:48.933Z,31.17
2023-05-03T13:10:41.525Z,31.09
2023-05-03T13:11:41.350Z,31.07
2023-05-03T13:12:41.286Z,31.02
2023-05-03T13:13:41.308Z,30.99
2023-05-03T13:14:41.320Z,31.02
2023-05-03T13:15:41.495Z,31.00
2023-05-03T13:16:41.381Z,30.94
2023-05-03T13:17:41.369Z,31.02
2023-05-03T13:18:41.355Z,30.90
2023-05-03T13:19:41.365Z,30.90
2023-05-03T13:20:41.379Z,30.80
2023-05-03T13:21:41.392Z,30.86
2023-05-03T13:22:41.432Z,30.89
2023-05-03T13:23:41.468Z,30.86
2023-05-03T13:24:41.419Z,30.83
2023-05-03T13:25:41.431Z,30.90
2023-05-03T13:26:41.442Z,30.86
2023-05-03T13:27:41.457Z,30.80
2023-05-03T13:28:41.487Z,30.83
2023-05-03T13:29:41.471Z,30.84
2023-05-03T13:30:41.487Z,30.80
2023-05-03T13:31:43.201Z,30.74
2023-05-03T13:32:41.795Z,30.70
2023-05-03T13:33:41.801Z,30.66
2023-05-03T13:34:41.842Z,30.61
2023-05-03T13:35:41.884Z,30.62
2023-05-03T13:36:41.941Z,30.67
2023-05-03T13:37:41.981Z,30.61
2023-05-03T13:38:42.054Z,30.53
2023-05-03T13:39:42.077Z,30.47
2023-05-03T13:40:42.126Z,30.62
2023-05-03T13:41:42.276Z,30.50
2023-05-03T13:42:42.223Z,30.48
2023-05-03T13:43:42.288Z,30.41
2023-05-03T13:44:42.338Z,30.32
2023-05-03T13:45:42.433Z,30.27
2023-05-03T13:46:42.497Z,30.29
2023-05-03T13:48:04.770Z,30.42
2023-05-03T13:48:42.590Z,30.45
2023-05-03T13:49:42.540Z,30.37
2023-05-03T13:50:42.547Z,30.37
2023-05-03T13:51:42.569Z,30.31
2023-05-03T13:52:42.594Z,30.35
2023-05-03T13:53:42.598Z,30.36
2023-05-03T13:54:42.639Z,30.39
2023-05-03T13:55:42.632Z,30.34
2023-05-03T13:56:43.003Z,30.29
2023-05-03T13:57:42.669Z,30.42
2023-05-03T13:58:42.719Z,30.35
2023-05-03T13:59:42.712Z,30.32
2023-05-03T14:00:42.737Z,30.29
2023-05-03T14:01:42.810Z,30.35
2023-05-03T14:02:42.811Z,30.36
2023-05-03T14:03:42.879Z,30.35
2023-05-03T14:04:42.996Z,30.35
2023-05-03T14:05:42.812Z,30.34
2023-05-03T14:06:42.858Z,30.28
2023-05-03T14:07:42.854Z,30.31
2023-05-03T14:08:42.867Z,30.18
2023-05-03T14:09:43.046Z,30.15
2023-05-03T14:10:42.997Z,30.09
2023-05-03T14:11:42.920Z,30.09
2023-05-03T14:12:43.008Z,30.04
2023-05-03T14:13:55.398Z,30.28
2023-05-03T14:14:42.982Z,30.11
2023-05-03T14:15:43.031Z,30.12
2023-05-03T14:16:43.057Z,30.28
2023-05-03T14:17:43.051Z,30.43
2023-05-03T14:18:43.018Z,35.02
2023-05-03T14:19:43.050Z,34.63
2023-05-03T14:20:43.089Z,33.61
2023-05-03T14:21:43.121Z,34.43
2023-05-03T14:22:43.074Z,34.83
2023-05-03T14:23:43.091Z,35.42
2023-05-03T14:24:43.136Z,37.30
2023-05-03T14:25:43.125Z,36.76
2023-05-03T14:26:43.161Z,36.86
2023-05-03T14:27:43.159Z,36.59
2023-05-03T14:28:43.173Z,37.52
2023-05-03T14:29:43.193Z,38.55
2023-05-03T14:30:43.194Z,38.91
2023-05-03T14:31:43.312Z,37.42
2023-05-03T14:32:43.241Z,36.24
2023-05-03T14:33:43.233Z,36.55
2023-05-03T14:34:43.234Z,36.08
2023-05-03T14:35:43.246Z,35.25
2023-05-03T14:36:43.256Z,34.95
2023-05-03T14:37:43.272Z,34.76
2023-05-03T14:38:43.292Z,34.55
2023-05-03T14:39:43.311Z,34.43
2023-05-03T14:40:43.336Z,34.39
2023-05-03T14:41:43.338Z,34.32
2023-05-03T14:42:43.446Z,34.17
2023-05-03T14:43:43.379Z,34.08
2023-05-03T14:44:43.461Z,34.00
2023-05-03T14:45:43.541Z,33.96
2023-05-03T14:46:43.664Z,34.00
2023-05-03T14:47:43.727Z,33.93
2023-05-03T14:48:43.806Z,33.86
2023-05-03T14:49:43.851Z,33.79
2023-05-03T14:50:43.933Z,33.68
2023-05-03T14:51:44.501Z,33.64
2023-05-03T14:52:44.097Z,33.62
2023-05-03T14:53:44.172Z,33.44
2023-05-03T14:54:44.251Z,33.40
2023-05-03T14:55:44.339Z,33.33
2023-05-03T14:56:44.430Z,33.27
2023-05-03T14:57:44.501Z,33.16
2023-05-03T14:58:44.666Z,33.14
2023-05-03T14:59:44.682Z,33.06
2023-05-03T15:00:44.787Z,32.90
2023-05-03T15:01:44.831Z,32.88
2023-05-03T15:02:44.989Z,32.88
2023-05-03T15:03:45.020Z,32.81
2023-05-03T15:04:45.097Z,32.81
2023-05-03T15:05:45.178Z,32.78
2023-05-03T15:06:45.258Z,32.74
2023-05-03T15:07:45.335Z,32.80
2023-05-03T15:08:45.426Z,32.75
2023-05-03T15:09:45.522Z,32.78
2023-05-03T15:10:45.622Z,32.70
2023-05-03T15:11:45.674Z,32.57
2023-05-03T15:12:45.822Z,32.60
2023-05-03T15:13:45.849Z,32.54
2023-05-03T15:14:45.960Z,32.51
2023-05-03T15:15:46.144Z,32.46
2023-05-03T15:16:46.158Z,32.44
2023-05-03T15:17:46.267Z,32.42
2023-05-03T15:18:46.261Z,32.40
2023-05-03T15:19:46.347Z,32.42
2023-05-03T15:20:46.417Z,32.38
2023-05-03T15:21:46.506Z,32.36
2023-05-03T15:22:46.598Z,32.35
2023-05-03T15:23:46.675Z,32.33
2023-05-03T15:24:46.753Z,32.33
2023-05-03T15:25:46.830Z,32.43
2023-05-03T15:26:47.001Z,32.33
2023-05-03T15:27:46.983Z,32.37
2023-05-03T15:28:47.068Z,32.34
2023-05-03T15:29:47.175Z,32.37
2023-05-03T15:30:47.612Z,32.37
2023-05-03T15:31:47.313Z,32.41
2023-05-03T15:32:47.413Z,32.40
2023-05-03T15:33:47.462Z,32.38
2023-05-03T15:34:47.553Z,32.42
2023-05-03T15:35:47.635Z,32.47
2023-05-03T15:36:47.717Z,32.43
2023-05-03T15:37:47.807Z,32.46
2023-05-03T15:38:47.891Z,32.42
2023-05-03T15:39:47.970Z,32.46
2023-05-03T15:40:48.057Z,32.48
2023-05-03T15:41:48.125Z,32.44
2023-05-03T15:42:48.203Z,32.48
2023-05-03T15:43:48.296Z,32.51
2023-05-03T15:44:48.375Z,32.50
2023-05-03T15:45:48.518Z,32.48
2023-05-03T15:46:48.573Z,32.51
2023-05-03T15:47:48.644Z,32.53
2023-05-03T15:48:48.706Z,32.54
2023-05-03T15:49:48.793Z,32.53
2023-05-03T15:50:48.879Z,32.57
2023-05-03T15:51:48.960Z,32.59
2023-05-03T15:52:49.048Z,32.58
2023-05-03T15:53:49.128Z,32.62
2023-05-03T15:54:49.208Z,32.64
2023-05-03T15:55:49.302Z,32.64
2023-05-03T15:56:49.416Z,32.66
2023-05-03T15:57:49.442Z,32.67
2023-05-03T15:58:50.086Z,32.67
2023-05-03T15:59:49.585Z,32.71
2023-05-03T16:00:49.668Z,32.68
2023-05-03T16:01:49.801Z,32.68
2023-05-03T16:02:49.895Z,32.68
2023-05-03T16:03:49.899Z,32.68
2023-05-03T16:04:50.471Z,32.69
2023-05-03T16:05:50.270Z,32.72
2023-05-03T16:06:50.147Z,32.73
2023-05-03T16:07:50.230Z,32.68
2023-05-03T16:08:50.319Z,32.73
2023-05-03T16:09:50.413Z,32.78
2023-05-03T16:10:50.514Z,32.73
2023-05-03T16:11:50.571Z,32.78
2023-05-03T16:12:50.685Z,32.75
2023-05-03T16:13:50.744Z,32.78
2023-05-03T16:14:50.836Z,32.82
2023-05-03T16:15:50.998Z,32.80
2023-05-03T16:16:51.016Z,32.80
2023-05-03T16:17:51.184Z,32.82
2023-05-03T16:18:51.183Z,32.81
2023-05-03T16:19:51.278Z,32.86
2023-05-03T16:20:51.350Z,32.83
2023-05-03T16:21:51.429Z,32.87
2023-05-03T16:22:52.833Z,32.87
2023-05-03T16:23:51.621Z,32.84
2023-05-03T16:24:51.702Z,32.85
2023-05-03T16:25:51.765Z,32.87
2023-05-03T16:26:51.845Z,32.90
2023-05-03T16:27:51.925Z,32.87
2023-05-03T16:28:51.995Z,32.95
2023-05-03T16:29:52.073Z,32.90
2023-05-03T16:30:52.148Z,32.89
2023-05-03T16:31:52.245Z,32.95
2023-05-03T16:32:52.402Z,32.96
2023-05-03T16:33:52.393Z,32.94
2023-05-03T16:34:52.443Z,32.96
2023-05-03T16:35:52.525Z,32.93
2023-05-03T16:36:52.587Z,32.96
2023-05-03T16:37:53.540Z,32.94
2023-05-03T16:38:52.734Z,32.99
2023-05-03T16:39:52.839Z,32.97
2023-05-03T16:40:52.892Z,32.97
2023-05-03T16:41:52.962Z,33.06
2023-05-03T16:42:53.057Z,33.06
2023-05-03T16:43:53.108Z,33.02
2023-05-03T16:44:53.197Z,33.05
2023-05-03T16:45:53.297Z,33.03
2023-05-03T16:46:53.353Z,33.10
2023-05-03T16:47:53.429Z,33.12
2023-05-03T16:48:53.491Z,33.11
2023-05-03T16:49:53.622Z,33.11
2023-05-03T16:50:53.661Z,33.08
2023-05-03T16:51:53.723Z,33.12
2023-05-03T16:52:53.806Z,33.15
2023-05-03T16:53:53.877Z,33.16
2023-05-03T16:54:53.962Z,33.18
2023-05-03T16:55:54.041Z,33.22
2023-05-03T16:56:54.114Z,33.18
2023-05-03T16:57:54.231Z,33.22
2023-05-03T16:58:54.270Z,33.18
2023-05-03T16:59:54.358Z,33.26
2023-05-03T17:00:54.457Z,33.22
2023-05-03T17:01:54.521Z,33.24
2023-05-03T17:02:54.687Z,33.28
2023-05-03T17:03:54.688Z,33.26
2023-05-03T17:04:55.114Z,33.27
2023-05-03T17:05:54.867Z,33.26
2023-05-03T17:06:54.912Z,33.27
2023-05-03T17:07:54.990Z,33.32
2023-05-03T17:08:55.064Z,33.33
2023-05-03T17:09:55.159Z,33.33
2023-05-03T17:10:55.223Z,33.33
2023-05-03T17:11:55.316Z,33.29
2023-05-03T17:12:55.425Z,33.33
2023-05-03T17:13:55.485Z,33.39
2023-05-03T17:14:55.548Z,33.36
2023-05-03T17:15:55.618Z,33.38
2023-05-03T17:16:55.769Z,33.40
2023-05-03T17:17:55.796Z,33.36
2023-05-03T17:18:55.848Z,33.39
2023-05-03T17:19:55.931Z,33.37
2023-05-03T17:20:56.004Z,33.41
2023-05-03T17:21:56.122Z,33.40
2023-05-03T17:22:56.165Z,33.43
2023-05-03T17:23:56.247Z,33.39
2023-05-03T17:24:56.329Z,33.46
2023-05-03T17:25:56.412Z,33.46
2023-05-03T17:26:56.491Z,33.44
2023-05-03T17:27:56.568Z,33.43
2023-05-03T17:28:56.646Z,33.43
2023-05-03T17:29:56.842Z,33.45
2023-05-03T17:30:56.809Z,33.44
2023-05-03T17:31:57.045Z,33.48
2023-05-03T17:32:57.047Z,33.50
2023-05-03T17:33:57.070Z,33.49
2023-05-03T17:34:57.135Z,33.55
2023-05-03T17:35:57.215Z,33.53
2023-05-03T17:36:57.300Z,33.51
2023-05-03T17:37:57.438Z,33.47
2023-05-03T17:38:57.462Z,33.50
2023-05-03T17:39:57.540Z,33.48
2023-05-03T17:40:57.626Z,33.52
2023-05-03T17:41:57.693Z,33.52
2023-05-03T17:42:57.774Z,33.51
2023-05-03T17:43:57.854Z,33.48
2023-05-03T17:44:57.965Z,33.54
2023-05-03T17:45:58.068Z,33.52
2023-05-03T17:46:58.095Z,33.58
2023-05-03T17:47:58.194Z,33.51
2023-05-03T17:48:58.257Z,33.61
2023-05-03T17:49:58.342Z,33.61
2023-05-03T17:50:58.427Z,33.55
2023-05-03T17:51:58.504Z,33.58
2023-05-03T17:52:58.606Z,33.52
2023-05-03T17:53:58.700Z,33.61
2023-05-03T17:54:58.752Z,33.60
2023-05-03T17:55:58.838Z,33.55
2023-05-03T17:56:58.936Z,33.55
2023-05-03T17:57:58.999Z,33.58
2023-05-03T17:58:59.086Z,33.58
2023-05-03T17:59:59.176Z,33.58
2023-05-03T18:00:59.248Z,33.59
2023-05-03T18:01:59.444Z,33.62
2023-05-03T18:02:59.528Z,33.61
2023-05-03T18:03:59.647Z,33.58